Time;durP1;ratioP1;P1;durP2;ratioP2;P2;SDS_P1;SDS_P2;PMS_P1;PMS_P2;Temp;Humidity;BMP_temperature;BMP_pressure;BME280_temperature;BME280_humidity;BME280_pressure;Samples;Min_cycle;Max_cycle;Signal;HPM_P1;HPM_P2
2023/10/10 00:02:24;;;;;;;;;;;19.10;53.60;;;;;;217290;1292;22534;-60
2023/10/10 00:07:28;;;;;;;;;;;19.10;53.60;;;;;;217606;1298;22533;-63
2023/10/10 00:12:32;;;;;;;;;;;19.20;53.60;;;;;;217317;1295;22540;-61
2023/10/10 00:17:36;;;;;;;;;;;19.10;53.60;;;;;;217562;1298;22556;-61
2023/10/10 00:22:39;;;;;;;;;;;19.10;53.70;;;;;;217414;1282;24257;-61
2023/10/10 00:27:46;;;;;;;;;;;19.10;54.10;;;;;;217456;1298;22554;-61
2023/10/10 00:32:50;;;;;;;;;;;19.10;53.80;;;;;;217408;1295;25514;-60
2023/10/10 00:37:53;;;;;;;;;;;19.10;53.80;;;;;;217273;1298;25196;-61
2023/10/10 00:42:58;;;;;;;;;;;19.10;53.70;;;;;;217393;1298;23924;-62
2023/10/10 00:48:02;;;;;;;;;;;19.10;53.70;;;;;;217335;1297;24312;-61
2023/10/10 00:53:11;;;;;;;;;;;19.10;53.70;;;;;;217726;1285;22549;-60
2023/10/10 00:58:15;;;;;;;;;;;19.10;54.10;;;;;;217518;1294;22652;-61
2023/10/10 01:03:21;;;;;;;;;;;19.10;53.70;;;;;;217456;1294;22715;-62
2023/10/10 01:08:30;;;;;;;;;;;19.10;53.70;;;;;;217491;1298;22764;-64
2023/10/10 01:13:34;;;;;;;;;;;19.00;53.70;;;;;;217262;1285;22637;-60
2023/10/10 01:18:51;;;;;;;;;;;19.10;53.80;;;;;;217382;1298;24286;-61
2023/10/10 01:23:58;;;;;;;;;;;19.10;53.80;;;;;;217337;1295;22553;-61
2023/10/10 01:29:12;;;;;;;;;;;19.10;53.80;;;;;;217619;1294;22647;-60
2023/10/10 01:34:30;;;;;;;;;;;19.00;53.80;;;;;;217437;1297;22531;-60
2023/10/10 01:39:47;;;;;;;;;;;19.00;53.80;;;;;;217418;1285;24390;-62
2023/10/10 01:44:51;;;;;;;;;;;19.10;53.80;;;;;;217321;1298;22507;-61
2023/10/10 01:49:58;;;;;;;;;;;19.00;54.00;;;;;;217560;1298;23936;-61
2023/10/10 01:55:01;;;;;;;;;;;19.10;53.80;;;;;;217482;1298;24070;-63
2023/10/10 02:00:37;;;;;;;;;;;19.00;53.80;;;;;;217440;1295;22530;-63
2023/10/10 02:10:49;;;;;;;;;;;19.00;53.80;;;;;;217630;1295;22685;-64
2023/10/10 02:15:53;;;;;;;;;;;19.00;53.80;;;;;;217404;1298;22629;-64
2023/10/10 02:21:05;;;;;;;;;;;19.00;54.20;;;;;;217440;1292;22535;-64
2023/10/10 02:26:14;;;;;;;;;;;19.00;53.90;;;;;;217443;1285;23649;-64
2023/10/10 02:31:19;;;;;;;;;;;19.00;53.80;;;;;;217350;1297;22523;-65
2023/10/10 02:36:30;;;;;;;;;;;19.00;54.20;;;;;;217358;1298;22535;-63
2023/10/10 02:41:38;;;;;;;;;;;19.00;53.80;;;;;;217447;1298;22608;-63
2023/10/10 02:46:42;;;;;;;;;;;19.00;53.80;;;;;;217535;1291;23912;-64
2023/10/10 02:51:48;;;;;;;;;;;19.00;53.90;;;;;;217300;1298;23904;-62
2023/10/10 02:56:53;;;;;;;;;;;19.00;53.90;;;;;;217581;1298;25517;-64
2023/10/10 03:02:19;;;;;;;;;;;19.00;53.90;;;;;;217506;1292;24221;-65
2023/10/10 03:07:31;;;;;;;;;;;18.90;53.90;;;;;;217245;1296;316090;-63
2023/10/10 03:12:37;;;;;;;;;;;19.00;53.90;;;;;;217280;1291;23163;-63
2023/10/10 03:28:18;;;;;;;;;;;18.90;53.90;;;;;;217527;1292;22531;-62
2023/10/10 03:33:37;;;;;;;;;;;18.90;53.90;;;;;;217603;1298;22748;-65
2023/10/10 05:25:55;;;;;;;;;;;18.80;54.10;;;;;;217290;1297;22560;-63
2023/10/10 05:30:58;;;;;;;;;;;18.80;54.10;;;;;;217348;1297;24250;-64
2023/10/10 05:36:06;;;;;;;;;;;18.80;54.10;;;;;;217461;1292;22547;-63
2023/10/10 05:41:12;;;;;;;;;;;18.80;54.10;;;;;;217329;1298;24890;-63
2023/10/10 05:46:15;;;;;;;;;;;18.80;54.10;;;;;;217445;1295;25317;-61
2023/10/10 05:51:18;;;;;;;;;;;18.80;54.20;;;;;;217216;1298;27842;-60
2023/10/10 05:56:21;;;;;;;;;;;18.80;54.10;;;;;;217250;1298;22527;-62
2023/10/10 06:01:24;;;;;;;;;;;18.80;54.20;;;;;;217300;1298;23313;-61
2023/10/10 06:06:28;;;;;;;;;;;18.80;54.20;;;;;;217415;1294;22531;-62
2023/10/10 06:11:34;;;;;;;;;;;18.80;54.20;;;;;;217291;1298;22632;-61
2023/10/10 06:16:37;;;;;;;;;;;18.80;54.20;;;;;;217559;1295;22534;-60
2023/10/10 06:21:40;;;;;;;;;;;18.80;54.30;;;;;;217354;1293;22618;-60
2023/10/10 06:26:46;;;;;;;;;;;18.80;54.20;;;;;;217223;1291;22549;-59
2023/10/10 06:31:49;;;;;;;;;;;18.80;54.60;;;;;;217368;1297;22827;-62
2023/10/10 06:36:52;;;;;;;;;;;18.80;54.30;;;;;;217399;1298;24263;-59
2023/10/10 06:41:57;;;;;;;;;;;18.80;54.30;;;;;;217403;1298;22552;-60
2023/10/10 06:47:08;;;;;;;;;;;18.80;54.30;;;;;;217410;1298;24245;-61
2023/10/10 06:52:18;;;;;;;;;;;18.80;54.30;;;;;;217466;1292;24299;-61
2023/10/10 06:57:21;;;;;;;;;;;18.80;54.30;;;;;;217389;1295;22592;-60
2023/10/10 07:02:25;;;;;;;;;;;18.80;54.20;;;;;;217482;1298;22585;-60
2023/10/10 07:07:28;;;;;;;;;;;18.80;54.30;;;;;;217449;1295;22540;-61
2023/10/10 07:12:31;;;;;;;;;;;18.80;54.40;;;;;;217244;1297;22756;-61
2023/10/10 07:17:38;;;;;;;;;;;18.80;54.40;;;;;;217449;1298;25546;-61
2023/10/10 07:22:43;;;;;;;;;;;18.80;54.40;;;;;;217486;1295;22535;-61
2023/10/10 07:27:46;;;;;;;;;;;18.80;54.40;;;;;;217468;1298;24353;-60
2023/10/10 07:32:50;;;;;;;;;;;18.70;54.40;;;;;;217419;1298;22663;-62
2023/10/10 07:37:52;;;;;;;;;;;18.70;54.50;;;;;;217408;1290;25282;-63
2023/10/10 07:42:59;;;;;;;;;;;18.80;54.60;;;;;;217353;1297;22640;-63
2023/10/10 07:53:06;;;;;;;;;;;18.80;54.50;;;;;;217366;1292;24246;-63
2023/10/10 07:58:10;;;;;;;;;;;18.80;54.60;;;;;;217496;1294;22659;-64
2023/10/10 08:03:19;;;;;;;;;;;18.80;54.50;;;;;;217268;1298;22537;-63
2023/10/10 08:08:25;;;;;;;;;;;18.80;54.90;;;;;;217450;1288;25332;-65
2023/10/10 08:13:28;;;;;;;;;;;18.80;54.50;;;;;;217486;1293;22594;-63
2023/10/10 08:23:46;;;;;;;;;;;18.80;54.50;;;;;;217654;1292;23953;-63
2023/10/10 08:28:50;;;;;;;;;;;18.90;54.40;;;;;;217643;1297;25320;-64
2023/10/10 08:33:52;;;;;;;;;;;18.90;54.50;;;;;;217497;1295;23935;-63
2023/10/10 08:38:56;;;;;;;;;;;18.90;54.40;;;;;;217440;1298;22806;-63
2023/10/10 08:44:01;;;;;;;;;;;18.90;54.30;;;;;;217685;1295;22544;-61
2023/10/10 08:49:04;;;;;;;;;;;19.00;54.60;;;;;;217557;1298;25319;-61
2023/10/10 08:54:11;;;;;;;;;;;19.00;54.40;;;;;;217710;1295;22544;-61
2023/10/10 08:59:17;;;;;;;;;;;19.00;54.20;;;;;;217619;1294;24425;-61
2023/10/10 09:04:20;;;;;;;;;;;18.90;54.40;;;;;;217246;1298;22545;-61
2023/10/10 09:09:34;;;;;;;;;;;19.00;54.30;;;;;;217440;1298;22546;-61
2023/10/10 09:14:41;;;;;;;;;;;18.90;54.40;;;;;;217442;1298;23637;-59
2023/10/10 09:19:47;;;;;;;;;;;18.90;54.50;;;;;;217356;1297;24304;-62
2023/10/10 09:24:50;;;;;;;;;;;18.90;54.40;;;;;;217425;1298;22541;-60
2023/10/10 09:29:56;;;;;;;;;;;19.00;54.50;;;;;;217304;1298;22540;-60
2023/10/10 09:34:59;;;;;;;;;;;18.90;54.90;;;;;;217475;1298;24372;-61
2023/10/10 09:40:05;;;;;;;;;;;18.90;54.50;;;;;;217459;1295;22530;-59
2023/10/10 09:45:25;;;;;;;;;;;19.00;54.50;;;;;;217667;1298;22526;-64
2023/10/10 09:50:35;;;;;;;;;;;19.00;54.50;;;;;;217515;1295;24253;-62
2023/10/10 09:55:42;;;;;;;;;;;19.00;54.50;;;;;;217660;1298;22615;-61
2023/10/10 10:00:48;;;;;;;;;;;19.00;54.60;;;;;;217353;1298;24279;-61
2023/10/10 10:06:34;;;;;;;;;;;19.00;54.60;;;;;;217180;1291;24299;-62
2023/10/10 10:11:43;;;;;;;;;;;19.00;54.70;;;;;;217587;1298;22553;-61
2023/10/10 10:16:58;;;;;;;;;;;19.10;55.00;;;;;;217427;1296;22523;-60
2023/10/10 10:22:13;;;;;;;;;;;19.00;54.60;;;;;;217471;1298;22535;-59
2023/10/10 10:32:25;;;;;;;;;;;19.20;54.50;;;;;;217484;1298;25539;-61
2023/10/10 10:37:29;;;;;;;;;;;19.20;54.60;;;;;;217763;1296;22659;-61
2023/10/10 10:42:37;;;;;;;;;;;19.30;54.60;;;;;;217433;1297;23652;-60
2023/10/10 10:47:45;;;;;;;;;;;19.20;54.60;;;;;;217630;1298;25264;-64
2023/10/10 10:52:57;;;;;;;;;;;19.20;54.60;;;;;;217499;1292;22560;-62
2023/10/10 10:58:06;;;;;;;;;;;19.20;54.60;;;;;;217369;1294;22531;-62
2023/10/10 11:03:11;;;;;;;;;;;19.30;54.70;;;;;;217531;1291;24413;-61
2023/10/10 11:08:14;;;;;;;;;;;19.40;54.70;;;;;;217346;1288;23902;-59
2023/10/10 11:13:17;;;;;;;;;;;19.30;54.70;;;;;;217549;1298;22563;-61
2023/10/10 11:18:34;;;;;;;;;;;19.30;55.50;;;;;;217606;1298;22538;-61
2023/10/10 11:23:43;;;;;;;;;;;19.30;54.90;;;;;;217275;1298;24394;-61
2023/10/10 11:28:49;;;;;;;;;;;19.40;54.80;;;;;;217543;1298;25374;-63
2023/10/10 11:34:10;;;;;;;;;;;19.30;55.10;;;;;;217483;1298;23916;-61
2023/10/10 11:39:31;;;;;;;;;;;19.30;54.90;;;;;;217334;1297;22547;-61
2023/10/10 11:44:34;;;;;;;;;;;19.30;54.90;;;;;;217782;1292;22534;-63
2023/10/10 11:49:41;;;;;;;;;;;19.30;55.00;;;;;;217323;1298;22531;-66
2023/10/10 11:54:44;;;;;;;;;;;19.30;55.00;;;;;;217431;1298;24256;-63
2023/10/10 11:59:47;;;;;;;;;;;19.30;55.00;;;;;;217463;1298;22586;-65
2023/10/10 12:04:50;;;;;;;;;;;19.40;55.10;;;;;;217549;1291;22531;-64
2023/10/10 12:09:55;;;;;;;;;;;19.30;55.00;;;;;;217358;1295;25335;-65
2023/10/10 12:15:00;;;;;;;;;;;19.40;55.10;;;;;;217463;1298;25265;-66
2023/10/10 12:20:04;;;;;;;;;;;19.30;55.20;;;;;;217669;1298;22526;-64
2023/10/10 12:25:13;;;;;;;;;;;19.40;55.30;;;;;;217531;1291;22596;-62
2023/10/10 12:30:18;;;;;;;;;;;19.40;55.10;;;;;;217443;1295;22571;-63
2023/10/10 12:35:26;;;;;;;;;;;19.40;55.20;;;;;;217392;1298;24320;-62
2023/10/10 12:40:33;;;;;;;;;;;19.40;55.10;;;;;;217512;1298;25439;-63
2023/10/10 12:45:36;;;;;;;;;;;19.30;55.10;;;;;;217473;1298;22622;-66
2023/10/10 12:50:42;;;;;;;;;;;19.30;55.30;;;;;;217309;1281;22550;-64
2023/10/10 12:55:49;;;;;;;;;;;19.40;55.50;;;;;;217590;1298;22527;-62
2023/10/10 13:00:52;;;;;;;;;;;19.30;55.40;;;;;;217400;1298;22635;-63
2023/10/10 13:06:00;;;;;;;;;;;19.40;55.50;;;;;;217530;1294;22679;-63
2023/10/10 13:11:04;;;;;;;;;;;19.40;55.50;;;;;;217346;1298;25393;-65
2023/10/10 13:16:07;;;;;;;;;;;19.50;55.50;;;;;;217364;1294;22545;-63
2023/10/10 13:21:10;;;;;;;;;;;19.40;55.90;;;;;;217469;1298;22601;-63
2023/10/10 13:26:13;;;;;;;;;;;19.40;55.60;;;;;;217509;1298;22664;-63
2023/10/10 13:31:17;;;;;;;;;;;19.40;56.00;;;;;;217197;1292;22543;-64
2023/10/10 13:36:19;;;;;;;;;;;19.40;55.60;;;;;;217444;1283;24413;-63
2023/10/10 13:41:23;;;;;;;;;;;19.40;55.60;;;;;;217463;1288;22538;-62
2023/10/10 13:46:29;;;;;;;;;;;19.40;55.70;;;;;;217542;1295;22540;-63
2023/10/10 13:51:39;;;;;;;;;;;19.50;56.30;;;;;;217338;1295;22640;-63
2023/10/10 13:56:43;;;;;;;;;;;19.50;55.70;;;;;;217497;1294;24246;-65
2023/10/10 14:01:47;;;;;;;;;;;19.50;55.70;;;;;;217530;1297;22660;-64
2023/10/10 14:06:50;;;;;;;;;;;19.50;55.90;;;;;;217323;1298;22637;-64
2023/10/10 14:12:01;;;;;;;;;;;19.50;55.80;;;;;;217498;1292;22564;-63
2023/10/10 14:17:03;;;;;;;;;;;19.50;56.40;;;;;;217257;1298;22564;-63
2023/10/10 14:22:10;;;;;;;;;;;19.50;55.80;;;;;;217297;1283;22567;-62
2023/10/10 14:27:14;;;;;;;;;;;19.50;55.80;;;;;;217155;1292;25262;-64
2023/10/10 14:32:17;;;;;;;;;;;19.50;56.10;;;;;;217422;1295;24243;-64
2023/10/10 14:37:40;;;;;;;;;;;19.50;56.00;;;;;;217318;1294;22540;-64
2023/10/10 14:43:06;;;;;;;;;;;19.50;55.90;;;;;;217339;1298;22533;-63
2023/10/10 14:48:09;;;;;;;;;;;19.50;56.00;;;;;;217534;1292;22639;-64
2023/10/10 14:53:15;;;;;;;;;;;19.50;56.00;;;;;;217454;1291;22527;-64
2023/10/10 14:58:21;;;;;;;;;;;19.50;56.30;;;;;;217308;1285;22651;-62
2023/10/10 15:03:25;;;;;;;;;;;19.50;56.10;;;;;;217402;1296;22531;-64
2023/10/10 15:08:28;;;;;;;;;;;19.50;55.90;;;;;;217122;1294;231347;-64
2023/10/10 15:13:32;;;;;;;;;;;19.50;56.00;;;;;;217398;1285;22543;-64
2023/10/10 15:18:37;;;;;;;;;;;19.50;56.00;;;;;;217408;1298;24915;-63
2023/10/10 15:23:44;;;;;;;;;;;19.50;56.10;;;;;;217310;1298;24411;-63
2023/10/10 15:28:47;;;;;;;;;;;19.40;56.00;;;;;;217559;1292;22565;-63
2023/10/10 15:33:49;;;;;;;;;;;19.40;56.00;;;;;;217494;1298;22537;-64
2023/10/10 15:38:52;;;;;;;;;;;19.50;56.30;;;;;;217681;1298;25392;-63
2023/10/10 15:43:55;;;;;;;;;;;19.50;55.90;;;;;;217417;1294;22543;-65
2023/10/10 15:48:59;;;;;;;;;;;19.40;56.00;;;;;;217403;1284;24247;-63
2023/10/10 15:54:02;;;;;;;;;;;19.40;56.00;;;;;;217441;1298;22572;-64
2023/10/10 15:59:06;;;;;;;;;;;19.40;56.20;;;;;;217322;1298;22655;-65
2023/10/10 16:04:16;;;;;;;;;;;19.50;56.50;;;;;;217489;1296;22534;-63
2023/10/10 16:09:20;;;;;;;;;;;19.50;56.20;;;;;;217591;1294;22815;-63
2023/10/10 16:14:23;;;;;;;;;;;19.50;56.20;;;;;;217557;1283;25316;-64
2023/10/10 16:19:30;;;;;;;;;;;19.40;56.30;;;;;;217436;1298;22749;-64
2023/10/10 16:24:33;;;;;;;;;;;19.40;56.30;;;;;;217534;1291;22536;-63
2023/10/10 16:29:36;;;;;;;;;;;19.40;56.60;;;;;;217678;1294;22803;-64
2023/10/10 16:34:40;;;;;;;;;;;19.40;56.30;;;;;;217434;1282;22658;-64
2023/10/10 16:39:46;;;;;;;;;;;19.30;56.50;;;;;;217521;1294;24280;-64
2023/10/10 16:44:53;;;;;;;;;;;19.30;56.60;;;;;;217506;1298;25420;-64
2023/10/10 16:49:55;;;;;;;;;;;19.30;56.60;;;;;;217525;1298;22555;-65
2023/10/10 16:54:59;;;;;;;;;;;19.30;56.50;;;;;;217307;1298;24304;-67
2023/10/10 17:00:15;;;;;;;;;;;19.30;56.60;;;;;;217339;1295;25512;-60
2023/10/10 17:05:23;;;;;;;;;;;19.30;56.60;;;;;;217455;1294;25486;-61
2023/10/10 17:10:29;;;;;;;;;;;19.30;56.60;;;;;;217553;1294;22531;-61
2023/10/10 17:15:34;;;;;;;;;;;19.30;56.50;;;;;;217710;1285;22533;-61
2023/10/10 17:20:40;;;;;;;;;;;19.30;56.90;;;;;;217491;1295;22529;-59
2023/10/10 17:25:43;;;;;;;;;;;19.30;57.00;;;;;;217405;1295;23345;-61
2023/10/10 17:30:47;;;;;;;;;;;19.20;56.40;;;;;;217552;1295;22546;-60
2023/10/10 17:35:50;;;;;;;;;;;19.20;56.50;;;;;;217725;1297;22658;-60
2023/10/10 17:41:00;;;;;;;;;;;19.20;56.60;;;;;;217632;1298;22567;-62
2023/10/10 17:46:04;;;;;;;;;;;19.20;56.90;;;;;;217243;1298;22544;-61
2023/10/10 17:51:14;;;;;;;;;;;19.20;56.50;;;;;;217486;1294;22555;-60
2023/10/10 17:56:18;;;;;;;;;;;19.20;56.60;;;;;;217279;1298;22533;-60
2023/10/10 18:01:20;;;;;;;;;;;19.20;57.00;;;;;;217422;1298;22540;-62
2023/10/10 18:06:24;;;;;;;;;;;19.10;56.80;;;;;;217460;1298;24208;-63
2023/10/10 18:11:31;;;;;;;;;;;19.10;56.90;;;;;;217406;1290;22704;-64
2023/10/10 18:16:35;;;;;;;;;;;19.10;56.80;;;;;;217305;1298;25438;-64
2023/10/10 18:21:40;;;;;;;;;;;19.10;56.80;;;;;;217527;1298;22487;-67
2023/10/10 18:26:43;;;;;;;;;;;19.10;56.70;;;;;;217558;1298;22683;-64
2023/10/10 18:31:45;;;;;;;;;;;19.10;56.90;;;;;;217583;1298;22655;-64
2023/10/10 18:36:50;;;;;;;;;;;19.10;56.80;;;;;;217374;1285;22629;-64
2023/10/10 18:41:54;;;;;;;;;;;19.10;56.80;;;;;;217436;1298;24278;-64
2023/10/10 18:47:00;;;;;;;;;;;19.10;56.80;;;;;;217326;1298;22546;-62
2023/10/10 18:52:04;;;;;;;;;;;19.10;56.80;;;;;;217574;1298;22542;-64
2023/10/10 18:57:08;;;;;;;;;;;19.10;56.90;;;;;;217501;1292;22530;-64
2023/10/10 19:02:11;;;;;;;;;;;19.10;56.80;;;;;;217495;1291;22533;-64
2023/10/10 19:07:15;;;;;;;;;;;19.10;56.80;;;;;;217273;1297;22560;-64
2023/10/10 19:12:20;;;;;;;;;;;19.10;57.10;;;;;;217368;1285;22526;-65
2023/10/10 19:17:23;;;;;;;;;;;19.10;56.80;;;;;;217564;1298;22653;-63
2023/10/10 19:22:26;;;;;;;;;;;19.10;56.70;;;;;;217270;1291;22706;-63
2023/10/10 19:27:29;;;;;;;;;;;19.10;56.70;;;;;;217500;1297;22768;-64
2023/10/10 19:32:35;;;;;;;;;;;19.10;56.80;;;;;;217630;1285;22534;-63
2023/10/10 19:37:42;;;;;;;;;;;19.00;56.90;;;;;;217419;1295;22537;-64
2023/10/10 19:42:45;;;;;;;;;;;19.00;57.10;;;;;;217313;1283;23947;-62
2023/10/10 19:48:05;;;;;;;;;;;19.10;56.80;;;;;;217527;1298;22801;-64
2023/10/10 19:53:12;;;;;;;;;;;19.00;56.80;;;;;;217506;1294;22532;-64
2023/10/10 19:58:15;;;;;;;;;;;19.10;57.20;;;;;;217608;1294;25323;-63
2023/10/10 20:03:20;;;;;;;;;;;19.00;56.80;;;;;;217275;1297;22645;-66
2023/10/10 20:08:23;;;;;;;;;;;19.00;56.70;;;;;;217489;1298;22661;-65
2023/10/10 20:13:26;;;;;;;;;;;19.10;57.10;;;;;;217573;1298;22580;-63
2023/10/10 20:18:29;;;;;;;;;;;19.10;56.80;;;;;;217340;1298;22531;-64
2023/10/10 20:23:32;;;;;;;;;;;19.00;56.80;;;;;;217284;1297;22533;-64
2023/10/10 20:28:36;;;;;;;;;;;19.10;56.80;;;;;;217712;1295;22630;-63
2023/10/10 20:33:39;;;;;;;;;;;19.00;56.80;;;;;;217217;1294;22562;-63
2023/10/10 20:38:42;;;;;;;;;;;19.00;56.90;;;;;;217480;1295;22529;-64
2023/10/10 20:43:46;;;;;;;;;;;19.00;56.90;;;;;;217514;1292;25370;-64
2023/10/10 20:48:49;;;;;;;;;;;19.00;56.80;;;;;;217386;1298;22652;-65
2023/10/10 20:53:53;;;;;;;;;;;19.00;57.20;;;;;;217645;1283;22527;-64
2023/10/10 20:58:55;;;;;;;;;;;19.00;56.80;;;;;;217635;1288;22527;-63
2023/10/10 21:03:59;;;;;;;;;;;19.00;56.90;;;;;;217383;1291;24281;-62
2023/10/10 21:09:02;;;;;;;;;;;18.90;56.90;;;;;;217091;1295;22530;-64
2023/10/10 21:14:05;;;;;;;;;;;19.00;57.40;;;;;;217599;1285;22659;-65
2023/10/10 21:19:09;;;;;;;;;;;19.00;56.90;;;;;;217535;1297;22560;-67
2023/10/10 21:24:12;;;;;;;;;;;19.00;56.90;;;;;;217313;1296;22529;-64
2023/10/10 21:29:18;;;;;;;;;;;19.00;57.00;;;;;;217333;1285;22540;-64
2023/10/10 21:34:23;;;;;;;;;;;19.00;57.00;;;;;;217620;1291;22573;-64
2023/10/10 21:39:25;;;;;;;;;;;19.00;57.00;;;;;;217705;1298;23060;-64
2023/10/10 21:44:30;;;;;;;;;;;19.00;57.00;;;;;;217341;1285;22554;-64
2023/10/10 21:49:33;;;;;;;;;;;19.00;57.00;;;;;;217407;1288;22527;-64
2023/10/10 21:54:39;;;;;;;;;;;18.90;57.00;;;;;;217700;1298;22542;-64
2023/10/10 21:59:42;;;;;;;;;;;19.00;57.00;;;;;;217456;1294;24310;-61
2023/10/10 22:04:46;;;;;;;;;;;19.00;57.00;;;;;;217463;1296;22614;-61
2023/10/10 22:09:49;;;;;;;;;;;19.00;57.00;;;;;;217433;1298;22681;-61
2023/10/10 22:14:52;;;;;;;;;;;19.00;57.40;;;;;;217320;1298;22622;-62
2023/10/10 22:19:55;;;;;;;;;;;19.00;57.10;;;;;;217355;1298;24049;-61
2023/10/10 22:24:58;;;;;;;;;;;19.00;57.00;;;;;;217322;1295;22546;-61
2023/10/10 22:30:02;;;;;;;;;;;19.00;57.10;;;;;;217378;1291;24373;-61
2023/10/10 22:35:05;;;;;;;;;;;19.00;57.00;;;;;;217443;1294;25316;-61
2023/10/10 22:40:11;;;;;;;;;;;19.00;57.00;;;;;;217289;1298;23954;-60
2023/10/10 22:45:19;;;;;;;;;;;18.90;57.00;;;;;;217381;1298;24674;-61
2023/10/10 22:50:22;;;;;;;;;;;19.00;57.10;;;;;;217179;1298;23735;-62
2023/10/10 22:55:28;;;;;;;;;;;19.00;57.10;;;;;;217517;1298;23760;-61
2023/10/10 23:00:36;;;;;;;;;;;19.00;57.10;;;;;;217421;1298;22527;-60
2023/10/10 23:05:41;;;;;;;;;;;19.00;57.40;;;;;;217611;1294;22547;-60
2023/10/10 23:10:46;;;;;;;;;;;19.00;57.10;;;;;;217570;1285;23210;-60
2023/10/10 23:15:49;;;;;;;;;;;19.00;57.30;;;;;;217617;1298;23178;-64
2023/10/10 23:20:52;;;;;;;;;;;18.90;57.10;;;;;;217401;1297;22533;-61
2023/10/10 23:25:55;;;;;;;;;;;18.90;57.20;;;;;;217446;1285;22547;-61
2023/10/10 23:30:58;;;;;;;;;;;18.90;57.20;;;;;;217548;1292;23908;-61
2023/10/10 23:36:01;;;;;;;;;;;18.90;57.20;;;;;;217341;1291;22534;-61
2023/10/10 23:41:04;;;;;;;;;;;18.90;57.20;;;;;;217231;1298;23798;-61
2023/10/10 23:46:07;;;;;;;;;;;19.00;57.10;;;;;;217636;1298;23925;-63
2023/10/10 23:51:10;;;;;;;;;;;19.00;57.20;;;;;;217273;1294;22560;-61
2023/10/10 23:56:12;;;;;;;;;;;19.00;57.30;;;;;;217315;1298;22538;-61
